createdAt,value
2022-12-23T00:01:55.619Z,2.47
2022-12-23T00:06:58.587Z,3.95
2022-12-23T00:12:15.361Z,2.38
2022-12-23T00:17:23.269Z,2.90
2022-12-23T00:22:40.509Z,3.97
2022-12-23T00:28:01.193Z,3.15
2022-12-23T00:33:05.747Z,1.90
2022-12-23T00:38:08.555Z,2.28
2022-12-23T00:43:11.390Z,1.20
2022-12-23T00:48:33.530Z,1.30
2022-12-23T00:53:36.387Z,1.63
2022-12-23T00:58:39.186Z,2.67
2022-12-23T01:04:00.852Z,1.42
2022-12-23T01:09:03.765Z,1.73
2022-12-23T01:14:09.204Z,1.13
2022-12-23T01:19:13.720Z,1.35
2022-12-23T01:24:16.629Z,2.20
2022-12-23T01:29:19.433Z,3.65
2022-12-23T01:34:23.593Z,1.70
2022-12-23T01:39:26.451Z,0.93
2022-12-23T01:44:57.733Z,4.45
2022-12-23T01:50:08.011Z,1.15
2022-12-23T01:55:12.168Z,1.80
2022-12-23T02:00:33.834Z,1.65
2022-12-23T02:05:38.420Z,1.25
2022-12-23T02:10:57.841Z,0.95
2022-12-23T02:16:17.556Z,0.82
2022-12-23T02:21:52.606Z,0.98
2022-12-23T02:27:09.121Z,0.65
2022-12-23T02:32:19.135Z,1.55
2022-12-23T02:37:30.312Z,1.50
2022-12-23T02:42:36.772Z,0.52
2022-12-23T02:47:45.678Z,1.33
2022-12-23T02:52:50.417Z,0.82
2022-12-23T02:57:56.501Z,0.75
2022-12-23T03:03:00.832Z,1.08
2022-12-23T03:08:07.495Z,0.47
2022-12-23T03:13:18.332Z,0.60
2022-12-23T03:18:31.973Z,0.52
2022-12-23T03:23:40.591Z,0.20
2022-12-23T03:28:50.251Z,0.32
2022-12-23T03:33:59.114Z,0.55
2022-12-23T03:39:05.550Z,1.02
2022-12-23T03:44:14.298Z,0.43
2022-12-23T03:49:25.152Z,0.40
2022-12-23T03:54:32.413Z,0.52
2022-12-23T03:59:37.955Z,0.28
2022-12-23T04:04:55.597Z,0.25
2022-12-23T04:09:59.662Z,0.43
2022-12-23T04:15:04.884Z,1.63
2022-12-23T04:20:13.676Z,0.32
2022-12-23T04:25:17.785Z,0.30
2022-12-23T04:30:20.730Z,0.70
2022-12-23T04:35:24.903Z,0.30
2022-12-23T04:40:27.766Z,0.22
2022-12-23T04:45:30.561Z,0.20
2022-12-23T04:50:34.711Z,0.30
2022-12-23T04:55:37.615Z,0.35
2022-12-23T05:00:40.480Z,0.30
2022-12-23T05:05:45.729Z,0.32
2022-12-23T05:10:48.600Z,0.22
2022-12-23T05:15:53.035Z,1.25
2022-12-23T05:20:57.253Z,0.20
2022-12-23T05:26:00.042Z,0.40
2022-12-23T05:31:04.728Z,0.20
2022-12-23T05:36:10.220Z,0.20
2022-12-23T05:41:13.181Z,0.10
2022-12-23T05:46:18.821Z,0.30
2022-12-23T05:51:26.913Z,1.35
2022-12-23T05:56:29.819Z,0.60
2022-12-23T06:01:32.688Z,0.10
2022-12-23T06:06:36.987Z,0.30
2022-12-23T06:11:39.833Z,0.10
2022-12-23T06:16:42.838Z,0.15
2022-12-23T06:21:47.103Z,0.20
2022-12-23T06:26:56.557Z,0.15
2022-12-23T06:32:00.000Z,0.10
2022-12-23T06:37:04.208Z,0.15
2022-12-23T06:42:07.034Z,1.17
2022-12-23T06:47:09.876Z,1.00
2022-12-23T06:52:14.026Z,0.30
2022-12-23T06:57:16.909Z,1.65
2022-12-23T07:02:19.859Z,1.23
2022-12-23T07:07:24.425Z,0.50
2022-12-23T07:12:27.315Z,0.70
2022-12-23T07:17:30.180Z,0.45
2022-12-23T07:22:34.376Z,0.43
2022-12-23T07:27:37.201Z,0.65
2022-12-23T07:32:40.328Z,0.40
2022-12-23T07:37:44.725Z,2.50
2022-12-23T07:42:49.826Z,1.20
2022-12-23T07:47:54.435Z,1.38
2022-12-23T07:52:58.794Z,2.00
2022-12-23T07:58:01.669Z,0.80
2022-12-23T08:03:04.806Z,0.52
2022-12-23T08:08:09.105Z,0.75
2022-12-23T08:13:11.917Z,0.40
2022-12-23T08:18:14.767Z,1.98
2022-12-23T08:23:24.551Z,0.55
2022-12-23T08:28:27.964Z,0.57
2022-12-23T08:33:30.868Z,0.40
2022-12-23T08:38:35.935Z,0.30
2022-12-23T08:43:38.931Z,0.93
2022-12-23T08:48:48.648Z,1.40
2022-12-23T08:54:00.171Z,0.30
2022-12-23T08:59:04.782Z,0.52
2022-12-23T09:04:08.412Z,0.43
2022-12-23T09:09:14.349Z,2.28
2022-12-23T09:14:17.157Z,1.95
2022-12-23T09:19:20.435Z,3.33
2022-12-23T09:24:24.639Z,3.15
2022-12-23T09:29:27.463Z,3.00
2022-12-23T09:34:30.323Z,3.63
2022-12-23T09:39:34.489Z,3.35
2022-12-23T09:44:54.997Z,4.70
2022-12-23T09:50:02.297Z,8.25
2022-12-23T09:55:12.159Z,5.32
2022-12-23T10:00:17.240Z,0.32
2022-12-23T10:05:28.533Z,3.60
2022-12-23T10:10:37.491Z,2.63
2022-12-23T10:15:44.222Z,4.00
2022-12-23T10:20:54.184Z,3.35
2022-12-23T10:25:58.447Z,1.25
2022-12-23T10:31:38.092Z,1.45
2022-12-23T10:36:36.853Z,1.90
2022-12-23T10:41:49.286Z,2.30
2022-12-23T10:47:01.251Z,1.92
2022-12-23T10:52:10.740Z,0.90
2022-12-23T10:57:16.793Z,0.50
2022-12-23T11:02:46.028Z,2.13
2022-12-23T11:07:49.008Z,1.38
2022-12-23T11:12:54.951Z,2.33
2022-12-23T11:18:03.234Z,2.75
2022-12-23T11:23:07.998Z,1.67
2022-12-23T11:28:17.406Z,0.85
2022-12-23T11:33:25.794Z,3.20
2022-12-23T11:38:28.786Z,0.60
2022-12-23T11:43:33.484Z,1.50
2022-12-23T11:48:36.313Z,0.88
2022-12-23T11:53:44.669Z,2.63
2022-12-23T11:58:53.479Z,3.33
2022-12-23T12:03:59.535Z,1.73
2022-12-23T12:09:05.415Z,6.18
2022-12-23T12:14:09.766Z,14.93
2022-12-23T12:19:18.432Z,12.95
2022-12-23T12:24:26.364Z,7.97
2022-12-23T12:29:37.607Z,8.25
2022-12-23T12:34:50.573Z,5.32
2022-12-23T12:39:55.832Z,6.30
2022-12-23T12:45:14.370Z,4.40
2022-12-23T12:50:21.333Z,4.00
2022-12-23T12:55:28.913Z,7.03
2022-12-23T13:00:42.714Z,8.60
2022-12-23T13:06:00.750Z,5.80
2022-12-23T13:11:10.622Z,4.38
2022-12-23T13:16:27.782Z,5.38
2022-12-23T13:21:38.369Z,2.80
2022-12-23T13:26:46.995Z,5.63
2022-12-23T13:31:55.899Z,2.60
2022-12-23T13:37:04.149Z,3.03
2022-12-23T13:42:12.905Z,2.85
2022-12-23T13:47:24.790Z,7.60
2022-12-23T13:52:43.754Z,2.22
2022-12-23T13:57:55.329Z,2.80
2022-12-23T14:03:23.313Z,4.45
2022-12-23T14:08:40.129Z,5.10
2022-12-23T14:13:52.394Z,3.88
2022-12-23T14:19:23.448Z,2.00
2022-12-23T14:25:11.796Z,7.32
2022-12-23T14:30:17.356Z,1.50
2022-12-23T14:35:28.422Z,1.88
2022-12-23T14:40:55.835Z,1.38
2022-12-23T14:46:02.200Z,2.33
2022-12-23T14:51:24.380Z,1.70
2022-12-23T14:56:36.897Z,1.23
2022-12-23T15:01:42.264Z,2.00
2022-12-23T15:06:50.154Z,0.70
2022-12-23T15:11:54.620Z,1.42
2022-12-23T15:16:57.596Z,1.98
2022-12-23T15:22:20.603Z,1.13
2022-12-23T15:27:28.879Z,1.27
2022-12-23T15:32:32.596Z,0.57
2022-12-23T15:37:36.771Z,0.55
2022-12-23T15:42:40.493Z,2.47
2022-12-23T15:47:43.514Z,0.75
2022-12-23T15:52:50.137Z,0.52
2022-12-23T15:57:53.586Z,1.45
2022-12-23T16:03:01.632Z,1.23
2022-12-23T16:08:29.118Z,0.73
2022-12-23T16:13:34.485Z,0.95
2022-12-23T16:18:47.151Z,0.70
2022-12-23T16:23:53.836Z,0.57
2022-12-23T16:29:01.195Z,0.50
2022-12-23T16:34:07.630Z,1.17
2022-12-23T16:39:21.662Z,0.50
2022-12-23T16:44:24.563Z,1.95
2022-12-23T16:49:35.804Z,3.67
2022-12-23T16:54:39.966Z,3.83
2022-12-23T16:59:42.849Z,2.60
2022-12-23T17:04:45.722Z,3.22
2022-12-23T17:09:49.949Z,3.38
2022-12-23T17:14:52.745Z,1.00
2022-12-23T17:19:56.264Z,1.10
2022-12-23T17:25:00.497Z,1.27
2022-12-23T17:30:03.452Z,0.70
2022-12-23T17:35:06.757Z,1.60
2022-12-23T17:40:13.252Z,2.47
2022-12-23T17:45:25.397Z,2.88
2022-12-23T17:50:28.674Z,0.77
2022-12-23T17:55:33.166Z,2.70
2022-12-23T18:00:37.090Z,1.60
2022-12-23T18:05:40.372Z,2.47
2022-12-23T18:10:45.527Z,2.65
2022-12-23T18:15:48.726Z,2.40
2022-12-23T18:20:53.123Z,2.55
2022-12-23T18:25:58.214Z,0.95
2022-12-23T18:31:01.280Z,1.05
2022-12-23T18:36:04.533Z,0.68
2022-12-23T18:41:10.803Z,1.95
2022-12-23T18:46:14.160Z,0.50
2022-12-23T18:51:18.684Z,1.23
2022-12-23T18:56:24.019Z,0.50
2022-12-23T19:01:26.971Z,1.08
2022-12-23T19:06:29.815Z,0.95
2022-12-23T19:11:34.443Z,3.47
2022-12-23T19:16:37.437Z,3.55
2022-12-23T19:21:40.461Z,0.95
2022-12-23T19:26:44.833Z,0.60
2022-12-23T19:31:47.678Z,4.32
2022-12-23T19:36:50.654Z,3.47
2022-12-23T19:41:54.945Z,3.63
2022-12-23T19:46:57.728Z,2.35
2022-12-23T19:52:00.611Z,2.53
2022-12-23T19:57:04.881Z,7.38
2022-12-23T20:02:07.699Z,2.63
2022-12-23T20:07:11.086Z,5.10
2022-12-23T20:12:15.275Z,4.78
2022-12-23T20:17:18.104Z,2.85
2022-12-23T20:22:20.917Z,4.13
2022-12-23T20:27:28.022Z,5.70
2022-12-23T20:32:31.213Z,1.33
2022-12-23T20:37:34.015Z,4.90
2022-12-23T20:42:38.394Z,0.80
2022-12-23T20:47:41.437Z,2.42
2022-12-23T20:52:44.241Z,4.20
2022-12-23T20:57:48.436Z,3.22
2022-12-23T21:02:51.371Z,1.40
2022-12-23T21:07:54.305Z,2.47
2022-12-23T21:12:58.489Z,7.30
2022-12-23T21:18:01.361Z,1.58
2022-12-23T21:23:04.234Z,4.38
2022-12-23T21:28:08.384Z,2.95
2022-12-23T21:33:11.201Z,0.70
2022-12-23T21:38:14.017Z,1.85
2022-12-23T21:43:18.291Z,4.15
2022-12-23T21:48:21.139Z,0.73
2022-12-23T21:53:23.953Z,1.35
2022-12-23T21:58:28.240Z,1.60
2022-12-23T22:03:31.108Z,0.68
2022-12-23T22:08:34.444Z,1.00
2022-12-23T22:13:38.978Z,0.68
2022-12-23T22:18:43.006Z,0.65
2022-12-23T22:23:46.362Z,0.60
2022-12-23T22:28:50.732Z,1.40
2022-12-23T22:33:53.581Z,1.30
2022-12-23T22:38:58.690Z,1.17
2022-12-23T22:44:02.897Z,0.50
2022-12-23T22:49:05.982Z,0.93
2022-12-23T22:54:09.118Z,1.10
2022-12-23T22:59:21.274Z,0.30
2022-12-23T23:04:24.330Z,1.70
2022-12-23T23:09:27.199Z,0.60
2022-12-23T23:14:51.721Z,1.77
2022-12-23T23:19:55.161Z,2.42
2022-12-23T23:24:58.026Z,2.38
2022-12-23T23:30:02.241Z,2.45
2022-12-23T23:35:10.719Z,0.80
2022-12-23T23:40:14.226Z,3.08
2022-12-23T23:45:18.392Z,3.45
2022-12-23T23:50:21.482Z,1.60
2022-12-23T23:55:24.293Z,1.13
